createdAt,value
2022-11-18T00:00:35.408Z,0.90
2022-11-18T00:01:35.377Z,1.00
2022-11-18T00:02:35.404Z,1.10
2022-11-18T00:03:35.345Z,1.10
2022-11-18T00:04:35.336Z,1.30
2022-11-18T00:05:35.309Z,1.00
2022-11-18T00:06:35.316Z,1.10
2022-11-18T00:07:35.310Z,1.40
2022-11-18T00:08:35.287Z,1.00
2022-11-18T00:09:35.285Z,1.10
2022-11-18T00:10:35.265Z,1.10
2022-11-18T00:11:35.258Z,1.10
2022-11-18T00:12:35.237Z,1.00
2022-11-18T00:13:35.215Z,1.20
2022-11-18T00:14:35.215Z,1.00
2022-11-18T00:15:35.205Z,1.20
2022-11-18T00:16:35.182Z,1.20
2022-11-18T00:17:35.168Z,1.00
2022-11-18T00:18:35.154Z,1.00
2022-11-18T00:19:35.140Z,1.10
2022-11-18T00:20:35.126Z,1.10
2022-11-18T00:21:35.123Z,1.00
2022-11-18T00:22:35.093Z,1.00
2022-11-18T00:23:35.083Z,1.10
2022-11-18T00:24:35.074Z,1.10
2022-11-18T00:25:35.052Z,1.10
2022-11-18T00:26:35.050Z,1.00
2022-11-18T00:27:35.042Z,1.20
2022-11-18T00:28:35.023Z,0.90
2022-11-18T00:29:35.011Z,1.10
2022-11-18T00:30:35.016Z,1.10
2022-11-18T00:31:34.982Z,1.00
2022-11-18T00:32:35.004Z,1.10
2022-11-18T00:33:34.960Z,0.90
2022-11-18T00:34:34.950Z,1.10
2022-11-18T00:35:34.936Z,1.20
2022-11-18T00:36:35.016Z,0.90
2022-11-18T00:37:34.902Z,1.10
2022-11-18T00:38:34.917Z,0.90
2022-11-18T00:39:34.871Z,1.00
2022-11-18T00:40:34.882Z,1.30
2022-11-18T00:41:34.848Z,1.30
2022-11-18T00:42:34.831Z,1.20
2022-11-18T00:43:34.833Z,1.10
2022-11-18T00:44:34.839Z,1.10
2022-11-18T00:45:34.790Z,1.40
2022-11-18T00:46:34.789Z,1.10
2022-11-18T00:47:34.769Z,1.40
2022-11-18T00:48:34.769Z,1.50
2022-11-18T00:49:34.748Z,1.10
2022-11-18T00:50:34.756Z,1.20
2022-11-18T00:51:34.718Z,1.00
2022-11-18T00:52:34.716Z,1.10
2022-11-18T00:53:34.714Z,1.30
2022-11-18T00:54:34.685Z,0.90
2022-11-18T00:55:34.689Z,1.50
2022-11-18T00:56:34.667Z,1.10
2022-11-18T00:57:34.646Z,1.00
2022-11-18T00:58:34.627Z,1.30
2022-11-18T00:59:34.619Z,1.20
2022-11-18T01:00:34.627Z,1.00
2022-11-18T01:01:34.625Z,1.30
2022-11-18T01:02:34.585Z,1.10
2022-11-18T01:03:34.567Z,1.00
2022-11-18T01:04:34.555Z,1.10
2022-11-18T01:05:34.546Z,1.10
2022-11-18T01:06:34.525Z,1.10
2022-11-18T01:07:34.584Z,1.00
2022-11-18T01:08:34.503Z,1.20
2022-11-18T01:09:34.494Z,1.30
2022-11-18T01:10:34.495Z,1.00
2022-11-18T01:11:34.464Z,1.10
2022-11-18T01:12:34.454Z,1.40
2022-11-18T01:13:34.436Z,1.40
2022-11-18T01:14:34.424Z,1.20
2022-11-18T01:15:34.421Z,1.40
2022-11-18T01:16:34.403Z,1.10
2022-11-18T01:17:34.382Z,1.10
2022-11-18T01:18:34.373Z,1.00
2022-11-18T01:19:34.353Z,1.10
2022-11-18T01:20:34.362Z,1.20
2022-11-18T01:21:34.359Z,1.00
2022-11-18T01:22:34.322Z,1.50
2022-11-18T01:23:34.302Z,1.40
2022-11-18T01:24:34.310Z,1.40
2022-11-18T01:25:34.292Z,1.00
2022-11-18T01:26:34.290Z,1.30
2022-11-18T01:27:34.338Z,1.20
2022-11-18T01:28:34.271Z,1.50
2022-11-18T01:29:34.270Z,1.30
2022-11-18T01:30:34.253Z,1.30
2022-11-18T01:31:34.214Z,1.20
2022-11-18T01:32:34.197Z,1.40
2022-11-18T01:33:34.196Z,1.30
2022-11-18T01:34:34.173Z,1.30
2022-11-18T01:35:34.150Z,1.40
2022-11-18T01:36:34.160Z,1.20
2022-11-18T01:37:34.130Z,1.60
2022-11-18T01:38:34.118Z,1.30
2022-11-18T01:39:34.097Z,1.10
2022-11-18T01:40:34.091Z,1.20
2022-11-18T01:41:34.091Z,1.50
2022-11-18T01:42:34.077Z,1.10
2022-11-18T01:43:34.048Z,1.50
2022-11-18T01:44:34.038Z,0.90
2022-11-18T01:45:34.022Z,1.10
2022-11-18T01:46:34.033Z,1.40
2022-11-18T01:47:34.010Z,1.10
2022-11-18T01:48:33.986Z,1.30
2022-11-18T01:49:33.978Z,1.20
2022-11-18T01:50:33.966Z,1.30
2022-11-18T01:51:33.950Z,1.40
2022-11-18T01:52:33.945Z,1.20
2022-11-18T01:53:33.916Z,1.10
2022-11-18T01:54:33.919Z,1.00
2022-11-18T01:55:33.895Z,1.20
2022-11-18T01:56:33.895Z,1.00
2022-11-18T01:57:33.865Z,1.30
2022-11-18T01:58:33.856Z,1.40
2022-11-18T01:59:33.846Z,1.20
2022-11-18T02:00:33.834Z,1.50
2022-11-18T02:01:33.888Z,1.60
2022-11-18T02:02:33.813Z,0.90
2022-11-18T02:03:33.785Z,1.20
2022-11-18T02:04:33.783Z,1.40
2022-11-18T02:05:33.777Z,1.20
2022-11-18T02:06:33.765Z,1.00
2022-11-18T02:07:33.789Z,1.00
2022-11-18T02:08:33.723Z,1.10
2022-11-18T02:09:33.714Z,0.90
2022-11-18T02:10:33.703Z,1.20
2022-11-18T02:11:33.750Z,1.20
2022-11-18T02:12:33.683Z,1.20
2022-11-18T02:13:33.662Z,1.00
2022-11-18T02:14:33.652Z,0.90
2022-11-18T02:15:33.632Z,1.20
2022-11-18T02:16:33.641Z,1.20
2022-11-18T02:17:33.605Z,1.00
2022-11-18T02:18:33.607Z,1.00
2022-11-18T02:19:33.590Z,1.00
2022-11-18T02:20:33.591Z,0.80
2022-11-18T02:21:33.580Z,0.90
2022-11-18T02:22:33.541Z,1.20
2022-11-18T02:23:33.529Z,1.00
2022-11-18T02:24:33.529Z,1.00
2022-11-18T02:25:33.510Z,0.90
2022-11-18T02:26:33.529Z,0.80
2022-11-18T02:27:33.489Z,0.90
2022-11-18T02:28:33.475Z,1.00
2022-11-18T02:29:33.456Z,1.20
2022-11-18T02:30:33.443Z,1.00
2022-11-18T02:31:33.470Z,1.10
2022-11-18T02:32:33.418Z,1.00
2022-11-18T02:33:33.418Z,1.00
2022-11-18T02:34:33.397Z,0.90
2022-11-18T02:35:33.382Z,1.10
2022-11-18T02:36:33.381Z,1.00
2022-11-18T02:37:33.357Z,1.00
2022-11-18T02:38:33.349Z,1.00
2022-11-18T02:39:33.327Z,1.00
2022-11-18T02:40:33.317Z,1.00
2022-11-18T02:41:33.312Z,1.00
2022-11-18T02:42:33.294Z,1.10
2022-11-18T02:43:33.276Z,0.90
2022-11-18T02:44:33.276Z,1.00
2022-11-18T02:45:33.258Z,0.90
2022-11-18T02:46:33.263Z,0.90
2022-11-18T02:47:33.226Z,0.90
2022-11-18T02:48:33.217Z,1.00
2022-11-18T02:49:33.197Z,0.80
2022-11-18T02:50:33.196Z,0.90
2022-11-18T02:51:33.190Z,0.90
2022-11-18T02:52:33.164Z,0.80
2022-11-18T02:53:33.146Z,0.90
2022-11-18T02:54:33.146Z,0.80
2022-11-18T02:55:33.125Z,0.90
2022-11-18T02:56:33.137Z,0.90
2022-11-18T02:57:33.093Z,1.00
2022-11-18T02:58:33.082Z,1.40
2022-11-18T02:59:33.074Z,0.80
2022-11-18T03:00:33.052Z,1.10
2022-11-18T03:01:33.181Z,1.00
2022-11-18T03:02:33.034Z,1.00
2022-11-18T03:03:33.015Z,1.40
2022-11-18T03:04:33.018Z,1.00
2022-11-18T03:05:32.991Z,1.00
2022-11-18T03:06:32.993Z,1.00
2022-11-18T03:07:33.095Z,0.90
2022-11-18T03:08:32.952Z,1.00
2022-11-18T03:09:32.954Z,1.10
2022-11-18T03:10:32.931Z,0.90
2022-11-18T03:11:32.935Z,1.00
2022-11-18T03:12:32.902Z,1.00
2022-11-18T03:13:32.903Z,1.00
2022-11-18T03:14:32.895Z,1.00
2022-11-18T03:15:32.878Z,1.10
2022-11-18T03:16:32.871Z,1.00
2022-11-18T03:17:32.846Z,1.00
2022-11-18T03:18:32.830Z,1.10
2022-11-18T03:19:32.823Z,1.10
2022-11-18T03:20:32.797Z,1.20
2022-11-18T03:21:32.809Z,1.10
2022-11-18T03:22:32.785Z,1.10
2022-11-18T03:23:32.771Z,1.20
2022-11-18T03:24:32.760Z,0.90
2022-11-18T03:25:32.753Z,0.90
2022-11-18T03:26:32.728Z,1.10
2022-11-18T03:27:32.709Z,1.10
2022-11-18T03:28:32.723Z,0.90
2022-11-18T03:29:32.696Z,1.00
2022-11-18T03:30:32.668Z,1.00
2022-11-18T03:31:32.677Z,1.00
2022-11-18T03:32:32.658Z,1.50
2022-11-18T03:33:32.636Z,1.30
2022-11-18T03:34:32.616Z,1.20
2022-11-18T03:35:32.610Z,0.80
2022-11-18T03:36:32.597Z,1.00
2022-11-18T03:37:32.586Z,1.20
2022-11-18T03:38:32.571Z,1.40
2022-11-18T03:39:32.561Z,1.40
2022-11-18T03:40:32.556Z,1.30
2022-11-18T03:41:32.548Z,1.10
2022-11-18T03:42:32.515Z,1.10
2022-11-18T03:43:32.508Z,0.90
2022-11-18T03:44:32.495Z,1.20
2022-11-18T03:45:32.478Z,1.00
2022-11-18T03:46:32.495Z,1.20
2022-11-18T03:47:32.457Z,1.40
2022-11-18T03:48:32.485Z,1.00
2022-11-18T03:49:32.437Z,1.00
2022-11-18T03:50:32.425Z,1.10
2022-11-18T03:51:32.438Z,1.20
2022-11-18T03:52:32.383Z,1.00
2022-11-18T03:53:32.387Z,1.00
2022-11-18T03:54:32.355Z,1.10
2022-11-18T03:55:32.364Z,1.00
2022-11-18T03:56:32.342Z,1.10
2022-11-18T03:57:32.323Z,1.20
2022-11-18T03:58:32.315Z,1.20
2022-11-18T03:59:32.304Z,1.30
2022-11-18T04:00:32.292Z,1.10
2022-11-18T04:01:32.418Z,1.10
2022-11-18T04:02:32.262Z,1.40
2022-11-18T04:03:32.252Z,1.40
2022-11-18T04:04:32.233Z,1.60
2022-11-18T04:05:32.222Z,1.30
2022-11-18T04:06:32.212Z,1.20
2022-11-18T04:07:32.295Z,1.50
2022-11-18T04:08:32.187Z,1.10
2022-11-18T04:09:32.178Z,1.20
2022-11-18T04:10:32.150Z,1.20
2022-11-18T04:11:32.163Z,1.20
2022-11-18T04:12:32.130Z,1.20
2022-11-18T04:13:32.130Z,1.50
2022-11-18T04:14:32.100Z,1.20
2022-11-18T04:15:32.099Z,1.30
2022-11-18T04:16:32.089Z,1.10
2022-11-18T04:17:32.069Z,1.30
2022-11-18T04:18:32.059Z,1.40
2022-11-18T04:19:32.038Z,1.30
2022-11-18T04:20:32.018Z,1.50
2022-11-18T04:21:32.030Z,1.30
2022-11-18T04:22:32.011Z,1.30
2022-11-18T04:23:31.993Z,1.10
2022-11-18T04:24:31.991Z,1.20
2022-11-18T04:25:31.958Z,1.30
2022-11-18T04:26:31.958Z,1.60
2022-11-18T04:27:31.936Z,1.30
2022-11-18T04:28:31.918Z,1.10
2022-11-18T04:29:31.906Z,1.40
2022-11-18T04:30:31.896Z,1.40
2022-11-18T04:31:31.903Z,1.30
2022-11-18T04:32:31.900Z,1.40
2022-11-18T04:33:31.859Z,1.00
2022-11-18T04:34:31.857Z,1.30
2022-11-18T04:35:31.837Z,1.40
2022-11-18T04:36:31.839Z,1.40
2022-11-18T04:37:31.797Z,1.20
2022-11-18T04:38:31.795Z,1.20
2022-11-18T04:39:31.788Z,1.60
2022-11-18T04:40:31.776Z,1.10
2022-11-18T04:41:31.793Z,1.20
2022-11-18T04:42:31.744Z,1.20
2022-11-18T04:43:31.724Z,1.30
2022-11-18T04:44:31.726Z,1.40
2022-11-18T04:45:31.703Z,1.40
2022-11-18T04:46:31.703Z,1.10
2022-11-18T04:47:31.676Z,1.10
2022-11-18T04:48:31.662Z,1.40
2022-11-18T04:49:31.645Z,1.30
2022-11-18T04:50:31.652Z,1.10
2022-11-18T04:51:31.632Z,1.20
2022-11-18T04:52:31.621Z,1.30
2022-11-18T04:53:31.600Z,1.20
2022-11-18T04:54:31.597Z,1.40
2022-11-18T04:55:31.581Z,1.30
2022-11-18T04:56:31.571Z,1.10
2022-11-18T04:57:31.561Z,1.40
2022-11-18T04:58:31.542Z,1.60
2022-11-18T04:59:31.519Z,1.10
2022-11-18T05:00:31.510Z,1.20
2022-11-18T05:01:31.552Z,1.30
2022-11-18T05:02:31.492Z,1.10
2022-11-18T05:03:31.471Z,1.30
2022-11-18T05:04:31.459Z,1.20
2022-11-18T05:05:31.440Z,1.10
2022-11-18T05:06:31.444Z,1.20
2022-11-18T05:07:31.491Z,1.50
2022-11-18T05:08:31.408Z,1.90
2022-11-18T05:09:32.280Z,1.60
2022-11-18T05:10:31.378Z,1.40
2022-11-18T05:11:31.359Z,1.30
2022-11-18T05:12:31.377Z,1.10
2022-11-18T05:13:31.338Z,1.30
2022-11-18T05:14:31.329Z,1.10
2022-11-18T05:15:31.327Z,1.30
2022-11-18T05:16:31.307Z,1.30
2022-11-18T05:17:31.317Z,1.20
2022-11-18T05:18:31.277Z,1.00
2022-11-18T05:19:31.266Z,1.30
2022-11-18T05:20:31.258Z,1.10
2022-11-18T05:21:31.241Z,1.30
2022-11-18T05:22:31.247Z,1.30
2022-11-18T05:23:31.215Z,1.00
2022-11-18T05:24:31.207Z,1.40
2022-11-18T05:25:31.179Z,1.40
2022-11-18T05:26:31.183Z,1.50
2022-11-18T05:27:31.175Z,1.60
2022-11-18T05:28:31.155Z,1.30
2022-11-18T05:29:31.133Z,1.30
2022-11-18T05:30:31.137Z,1.40
2022-11-18T05:31:31.104Z,1.50
2022-11-18T05:32:31.104Z,1.50
2022-11-18T05:33:31.088Z,1.30
2022-11-18T05:34:31.064Z,1.30
2022-11-18T05:35:31.054Z,1.40
2022-11-18T05:36:31.043Z,1.10
2022-11-18T05:37:31.053Z,1.50
2022-11-18T05:38:31.026Z,1.40
2022-11-18T05:39:31.002Z,1.60
2022-11-18T05:40:30.992Z,1.20
2022-11-18T05:41:30.972Z,1.30
2022-11-18T05:42:30.971Z,1.40
2022-11-18T05:43:30.960Z,1.40
2022-11-18T05:44:30.941Z,1.30
2022-11-18T05:45:30.931Z,1.20
2022-11-18T05:46:30.918Z,1.30
2022-11-18T05:47:30.912Z,1.70
2022-11-18T05:48:30.891Z,1.20
2022-11-18T05:49:30.871Z,1.30
2022-11-18T05:50:30.867Z,1.30
2022-11-18T05:51:30.863Z,1.50
2022-11-18T05:52:30.852Z,1.30
2022-11-18T05:53:30.822Z,1.30
2022-11-18T05:54:30.813Z,1.20
2022-11-18T05:55:30.806Z,1.40
2022-11-18T05:56:30.801Z,1.20
2022-11-18T05:57:30.788Z,1.20
2022-11-18T05:58:30.750Z,1.80
2022-11-18T05:59:30.748Z,1.50
2022-11-18T06:00:30.731Z,1.50
2022-11-18T06:01:30.729Z,1.30
2022-11-18T06:02:30.778Z,1.40
2022-11-18T06:03:31.225Z,1.40
2022-11-18T06:04:30.679Z,1.50
2022-11-18T06:05:30.678Z,1.60
2022-11-18T06:06:30.648Z,1.70
2022-11-18T06:07:30.722Z,1.40
2022-11-18T06:08:30.637Z,1.50
2022-11-18T06:09:30.619Z,1.50
2022-11-18T06:10:30.596Z,1.40
2022-11-18T06:11:30.597Z,1.70
2022-11-18T06:12:30.598Z,1.40
2022-11-18T06:13:30.566Z,1.50
2022-11-18T06:14:30.547Z,1.40
2022-11-18T06:15:30.547Z,1.40
2022-11-18T06:16:30.536Z,1.70
2022-11-18T06:17:30.535Z,1.60
2022-11-18T06:18:30.505Z,1.60
2022-11-18T06:19:30.495Z,1.40
2022-11-18T06:20:30.485Z,1.40
2022-11-18T06:21:30.466Z,1.40
2022-11-18T06:22:30.466Z,1.80
2022-11-18T06:23:30.444Z,1.50
2022-11-18T06:24:30.426Z,1.70
2022-11-18T06:25:30.405Z,1.50
2022-11-18T06:26:30.477Z,1.40
2022-11-18T06:27:30.416Z,1.40
2022-11-18T06:28:30.377Z,1.70
2022-11-18T06:29:30.821Z,1.60
2022-11-18T06:30:30.348Z,1.50
2022-11-18T06:31:30.337Z,1.60
2022-11-18T06:32:30.334Z,1.40
2022-11-18T06:33:30.324Z,1.90
2022-11-18T06:34:30.291Z,1.60
2022-11-18T06:35:30.297Z,1.30
2022-11-18T06:36:30.274Z,1.70
2022-11-18T06:37:30.274Z,1.80
2022-11-18T06:38:30.259Z,1.60
2022-11-18T06:39:30.251Z,1.70
2022-11-18T06:40:34.441Z,1.70
2022-11-18T06:41:30.219Z,1.40
2022-11-18T06:42:30.210Z,1.50
2022-11-18T06:43:30.178Z,1.70
2022-11-18T06:44:30.353Z,1.50
2022-11-18T06:45:30.241Z,1.90
2022-11-18T06:46:30.140Z,1.60
2022-11-18T06:47:30.150Z,1.60
2022-11-18T06:48:30.118Z,1.70
2022-11-18T06:49:30.108Z,1.70
2022-11-18T06:50:30.099Z,1.70
2022-11-18T06:51:30.076Z,1.70
2022-11-18T06:52:30.090Z,1.80
2022-11-18T06:53:30.049Z,1.80
2022-11-18T06:54:30.040Z,2.30
2022-11-18T06:55:30.040Z,1.70
2022-11-18T06:56:30.009Z,1.60
2022-11-18T06:57:30.021Z,1.80
2022-11-18T06:58:29.998Z,1.70
2022-11-18T06:59:29.978Z,1.80
2022-11-18T07:00:30.081Z,1.70
2022-11-18T07:01:30.024Z,1.80
2022-11-18T07:02:29.953Z,1.90
2022-11-18T07:03:29.932Z,1.80
2022-11-18T07:04:29.918Z,1.70
2022-11-18T07:05:29.909Z,1.70
2022-11-18T07:06:29.886Z,1.90
2022-11-18T07:07:29.941Z,1.80
2022-11-18T07:08:29.867Z,1.70
2022-11-18T07:09:29.846Z,1.80
2022-11-18T07:10:29.856Z,1.70
2022-11-18T07:11:29.826Z,1.60
2022-11-18T07:12:29.815Z,1.90
2022-11-18T07:13:29.800Z,1.80
2022-11-18T07:14:29.786Z,2.20
2022-11-18T07:15:29.774Z,2.50
2022-11-18T07:16:29.754Z,1.70
2022-11-18T07:17:29.782Z,1.80
2022-11-18T07:18:29.733Z,1.90
2022-11-18T07:19:34.457Z,1.90
2022-11-18T07:20:30.717Z,2.20
2022-11-18T07:21:29.685Z,2.00
2022-11-18T07:22:29.802Z,1.90
2022-11-18T07:23:29.672Z,1.80
2022-11-18T07:24:29.652Z,2.30
2022-11-18T07:25:29.642Z,1.90
2022-11-18T07:26:29.631Z,1.80
2022-11-18T07:27:29.623Z,1.90
2022-11-18T07:28:29.595Z,2.20
2022-11-18T07:29:29.583Z,2.40
2022-11-18T07:30:29.573Z,3.20
2022-11-18T07:31:29.570Z,2.20
2022-11-18T07:32:29.561Z,2.30
2022-11-18T07:33:29.546Z,2.10
2022-11-18T07:34:29.536Z,2.30
2022-11-18T07:35:29.510Z,2.10
2022-11-18T07:36:35.093Z,2.20
2022-11-18T07:37:30.499Z,2.00
2022-11-18T07:38:29.470Z,2.20
2022-11-18T07:39:29.450Z,2.20
2022-11-18T07:40:29.440Z,2.10
2022-11-18T07:41:29.429Z,2.20
2022-11-18T07:42:29.440Z,2.10
2022-11-18T07:43:29.402Z,2.40
2022-11-18T07:44:29.404Z,2.60
2022-11-18T07:45:29.368Z,2.20
2022-11-18T07:46:29.370Z,2.30
2022-11-18T07:47:29.358Z,2.20
2022-11-18T07:48:29.339Z,2.30
2022-11-18T07:49:29.330Z,2.40
2022-11-18T07:50:29.319Z,2.70
2022-11-18T07:51:29.298Z,2.60
2022-11-18T07:52:29.307Z,2.20
2022-11-18T07:53:29.283Z,2.30
2022-11-18T07:54:29.270Z,1.90
2022-11-18T07:55:32.193Z,2.30
2022-11-18T07:56:29.246Z,2.40
2022-11-18T07:57:29.237Z,2.40
2022-11-18T07:58:29.219Z,2.70
2022-11-18T07:59:29.195Z,2.10
2022-11-18T08:00:29.182Z,2.30
2022-11-18T08:01:29.295Z,2.80
2022-11-18T08:02:29.170Z,2.50
2022-11-18T08:03:29.143Z,2.30
2022-11-18T08:04:29.146Z,2.30
2022-11-18T08:05:29.207Z,2.20
2022-11-18T08:06:29.125Z,2.20
2022-11-18T08:07:29.163Z,2.00
2022-11-18T08:08:29.083Z,2.30
2022-11-18T08:09:29.067Z,2.40
2022-11-18T08:10:29.068Z,2.50
2022-11-18T08:11:29.044Z,2.40
2022-11-18T08:12:29.051Z,2.10
2022-11-18T08:13:29.013Z,2.30
2022-11-18T08:14:29.008Z,2.10
2022-11-18T08:15:28.994Z,2.10
2022-11-18T08:16:29.002Z,2.00
2022-11-18T08:17:28.986Z,2.60
2022-11-18T08:18:28.963Z,2.90
2022-11-18T08:19:28.941Z,2.60
2022-11-18T08:20:28.942Z,2.80
2022-11-18T08:21:28.911Z,2.30
2022-11-18T08:22:28.915Z,2.90
2022-11-18T08:23:33.146Z,2.50
2022-11-18T08:24:29.871Z,2.80
2022-11-18T08:25:28.872Z,2.80
2022-11-18T08:26:28.851Z,3.20
2022-11-18T08:27:28.849Z,2.80
2022-11-18T08:28:28.844Z,2.30
2022-11-18T08:29:29.176Z,3.10
2022-11-18T08:30:28.827Z,2.90
2022-11-18T08:31:28.785Z,2.40
2022-11-18T08:32:28.790Z,3.20
2022-11-18T08:33:28.762Z,3.00
2022-11-18T08:34:28.748Z,2.30
2022-11-18T08:35:28.738Z,3.20
2022-11-18T08:36:28.716Z,2.30
2022-11-18T08:37:28.708Z,3.30
2022-11-18T08:38:28.706Z,2.20
2022-11-18T08:39:28.678Z,2.50
2022-11-18T08:40:28.670Z,2.60
2022-11-18T08:41:28.672Z,1.90
2022-11-18T08:42:33.916Z,2.10
2022-11-18T08:43:29.628Z,1.90
2022-11-18T08:44:28.616Z,2.20
2022-11-18T08:45:28.607Z,1.70
2022-11-18T08:46:28.591Z,2.00
2022-11-18T08:47:28.656Z,1.90
2022-11-18T08:48:28.585Z,2.30
2022-11-18T08:49:32.424Z,1.80
2022-11-18T08:50:28.545Z,2.10
2022-11-18T08:51:28.528Z,1.80
2022-11-18T08:52:28.626Z,1.80
2022-11-18T08:53:28.515Z,2.10
2022-11-18T08:54:28.487Z,2.10
2022-11-18T08:55:28.473Z,2.10
2022-11-18T08:56:28.467Z,2.20
2022-11-18T08:57:28.441Z,2.20
2022-11-18T08:58:28.440Z,2.20
2022-11-18T08:59:28.455Z,1.90
2022-11-18T09:00:28.413Z,1.80
2022-11-18T09:01:28.449Z,2.30
2022-11-18T09:02:28.430Z,3.20
2022-11-18T09:03:28.372Z,3.30
2022-11-18T09:04:28.371Z,3.20
2022-11-18T09:05:28.342Z,2.70
2022-11-18T09:06:28.339Z,2.60
2022-11-18T09:07:28.420Z,2.70
2022-11-18T09:08:28.306Z,2.30
2022-11-18T09:09:28.313Z,2.10
2022-11-18T09:10:28.282Z,2.10
2022-11-18T09:11:28.261Z,2.40
2022-11-18T09:12:28.275Z,1.90
2022-11-18T09:14:14.285Z,2.30
2022-11-18T09:15:29.228Z,2.20
2022-11-18T09:16:28.566Z,2.30
2022-11-18T09:17:28.265Z,2.00
2022-11-18T09:18:28.175Z,2.40
2022-11-18T09:20:29.171Z,1.90
2022-11-18T09:21:28.140Z,1.90
2022-11-18T09:22:28.147Z,2.00
2022-11-18T09:23:28.109Z,2.60
2022-11-18T09:24:28.112Z,2.50
2022-11-18T09:25:28.090Z,2.50
2022-11-18T09:26:28.071Z,2.30
2022-11-18T09:27:28.073Z,2.00
2022-11-18T09:28:28.777Z,1.90
2022-11-18T09:29:28.776Z,2.10
2022-11-18T09:30:28.047Z,2.20
2022-11-18T09:31:28.006Z,2.40
2022-11-18T09:32:28.029Z,2.10
2022-11-18T09:33:27.988Z,2.30
2022-11-18T09:34:27.977Z,2.40
2022-11-18T09:35:28.713Z,2.30
2022-11-18T09:36:27.938Z,1.90
2022-11-18T09:37:28.656Z,1.90
2022-11-18T09:38:27.917Z,2.20
2022-11-18T09:39:27.900Z,2.00
2022-11-18T09:40:27.915Z,2.40
2022-11-18T09:41:27.876Z,2.10
2022-11-18T09:42:27.888Z,2.20
2022-11-18T09:43:27.846Z,2.10
2022-11-18T09:44:27.847Z,2.30
2022-11-18T09:45:27.825Z,2.20
2022-11-18T09:46:27.824Z,2.10
2022-11-18T09:47:27.810Z,2.20
2022-11-18T09:48:27.795Z,2.10
2022-11-18T09:49:27.775Z,2.60
2022-11-18T09:50:48.398Z,2.30
2022-11-18T09:51:28.746Z,2.60
2022-11-18T09:52:32.756Z,2.50
2022-11-18T09:53:28.741Z,2.20
2022-11-18T09:54:27.714Z,2.00
2022-11-18T09:55:27.705Z,2.40
2022-11-18T09:56:27.736Z,2.30
2022-11-18T09:57:27.700Z,2.20
2022-11-18T09:58:27.662Z,1.90
2022-11-18T09:59:27.653Z,2.10
2022-11-18T10:00:27.637Z,2.20
2022-11-18T10:01:27.987Z,2.10
2022-11-18T10:02:27.622Z,2.30
2022-11-18T10:03:27.622Z,1.80
2022-11-18T10:04:27.583Z,2.00
2022-11-18T10:05:27.575Z,2.50
2022-11-18T10:06:27.553Z,2.50
2022-11-18T10:07:27.648Z,2.20
2022-11-18T10:08:27.531Z,2.10
2022-11-18T10:09:27.525Z,2.20
2022-11-18T10:10:27.505Z,2.40
2022-11-18T10:11:27.491Z,2.00
2022-11-18T10:12:27.528Z,2.30
2022-11-18T10:13:27.472Z,2.10
2022-11-18T10:14:27.453Z,1.70
2022-11-18T10:15:27.450Z,1.90
2022-11-18T10:16:27.428Z,2.00
2022-11-18T10:17:27.422Z,2.10
2022-11-18T10:18:52.847Z,2.10
2022-11-18T10:19:28.389Z,2.60
2022-11-18T10:20:27.373Z,2.90
2022-11-18T10:21:27.380Z,2.70
2022-11-18T10:22:27.367Z,2.80
2022-11-18T10:23:27.348Z,2.00
2022-11-18T10:24:27.326Z,2.00
2022-11-18T10:25:27.310Z,1.80
2022-11-18T10:26:27.307Z,2.10
2022-11-18T10:27:27.289Z,1.80
2022-11-18T10:28:27.274Z,1.90
2022-11-18T10:29:27.249Z,1.80
2022-11-18T10:30:27.249Z,1.80
2022-11-18T10:31:27.254Z,1.70
2022-11-18T10:32:27.227Z,1.60
2022-11-18T10:33:27.199Z,3.40
2022-11-18T10:34:27.194Z,1.80
2022-11-18T10:35:27.176Z,1.90
2022-11-18T10:36:27.185Z,1.90
2022-11-18T10:37:39.108Z,1.90
2022-11-18T10:38:28.146Z,1.90
2022-11-18T10:39:27.131Z,1.70
2022-11-18T10:40:27.150Z,1.90
2022-11-18T10:41:27.106Z,1.80
2022-11-18T10:42:27.112Z,1.80
2022-11-18T10:43:27.075Z,2.30
2022-11-18T10:44:27.080Z,2.80
2022-11-18T10:45:27.044Z,1.80
2022-11-18T10:46:27.046Z,1.80
2022-11-18T10:47:27.034Z,1.60
2022-11-18T10:48:27.022Z,1.90
2022-11-18T10:49:26.997Z,1.80
2022-11-18T10:50:26.986Z,1.70
2022-11-18T10:51:26.973Z,1.60
2022-11-18T10:52:26.983Z,1.60
2022-11-18T10:53:26.952Z,1.70
2022-11-18T10:54:26.947Z,1.80
2022-11-18T10:55:26.923Z,1.40
2022-11-18T10:56:26.922Z,1.80
2022-11-18T10:57:26.905Z,1.40
2022-11-18T10:58:26.935Z,1.50
2022-11-18T10:59:26.873Z,1.30
2022-11-18T11:00:26.859Z,1.70
2022-11-18T11:01:26.911Z,1.80
2022-11-18T11:02:26.848Z,1.40
2022-11-18T11:03:26.991Z,1.50
2022-11-18T11:04:26.813Z,1.40
2022-11-18T11:05:26.791Z,1.50
2022-11-18T11:06:26.791Z,1.60
2022-11-18T11:07:27.027Z,1.40
2022-11-18T11:08:36.800Z,1.50
2022-11-18T11:09:27.813Z,1.40
2022-11-18T11:10:26.801Z,1.50
2022-11-18T11:11:26.771Z,1.60
2022-11-18T11:12:26.729Z,1.40
2022-11-18T11:13:26.689Z,1.60
2022-11-18T11:14:26.680Z,1.40
2022-11-18T11:15:26.671Z,1.10
2022-11-18T11:16:26.740Z,1.50
2022-11-18T11:17:26.714Z,1.10
2022-11-18T11:18:26.619Z,1.20
2022-11-18T11:19:26.608Z,1.30
2022-11-18T11:20:26.612Z,1.40
2022-11-18T11:21:26.615Z,1.30
2022-11-18T11:22:26.588Z,1.40
2022-11-18T11:23:26.557Z,1.40
2022-11-18T11:24:26.548Z,1.60
2022-11-18T11:25:26.853Z,1.20
2022-11-18T11:28:27.497Z,1.20
2022-11-18T11:29:26.487Z,1.30
2022-11-18T11:30:26.489Z,1.50
2022-11-18T11:31:26.458Z,1.70
2022-11-18T11:32:26.480Z,2.30
2022-11-18T11:33:26.441Z,2.50
2022-11-18T11:34:26.425Z,2.10
2022-11-18T11:35:26.418Z,2.00
2022-11-18T11:36:26.448Z,1.60
2022-11-18T11:37:26.395Z,1.60
2022-11-18T11:38:26.381Z,2.20
2022-11-18T11:39:26.356Z,1.90
2022-11-18T11:40:26.355Z,2.30
2022-11-18T11:41:26.340Z,2.30
2022-11-18T11:42:26.344Z,1.70
2022-11-18T11:43:26.322Z,1.40
2022-11-18T11:44:26.303Z,1.40
2022-11-18T11:45:26.284Z,1.50
2022-11-18T11:46:26.274Z,1.40
2022-11-18T11:47:26.287Z,1.30
2022-11-18T11:48:26.255Z,1.20
2022-11-18T11:49:26.256Z,1.30
2022-11-18T11:50:26.232Z,1.20
2022-11-18T11:51:26.214Z,1.30
2022-11-18T11:52:26.215Z,1.60
2022-11-18T11:53:26.183Z,1.40
2022-11-18T11:54:26.185Z,1.30
2022-11-18T11:55:26.162Z,1.40
2022-11-18T11:56:26.154Z,1.70
2022-11-18T11:57:26.152Z,1.40
2022-11-18T11:58:26.123Z,1.30
2022-11-18T11:59:26.102Z,1.20
2022-11-18T12:00:26.100Z,1.40
2022-11-18T12:01:26.152Z,1.10
2022-11-18T12:02:26.170Z,1.30
2022-11-18T12:03:26.061Z,1.30
2022-11-18T12:04:26.064Z,1.20
2022-11-18T12:05:26.031Z,1.30
2022-11-18T12:06:26.030Z,1.30
2022-11-18T12:07:26.101Z,1.50
2022-11-18T12:08:26.002Z,1.40
2022-11-18T12:09:25.988Z,1.30
2022-11-18T12:10:25.979Z,1.50
2022-11-18T12:11:25.958Z,1.30
2022-11-18T12:12:25.980Z,1.40
2022-11-18T12:13:25.937Z,1.50
2022-11-18T12:14:25.946Z,1.50
2022-11-18T12:15:25.907Z,1.50
2022-11-18T12:16:25.909Z,1.20
2022-11-18T12:17:25.891Z,1.30
2022-11-18T12:18:25.891Z,1.10
2022-11-18T12:19:25.858Z,1.50
2022-11-18T12:20:25.858Z,1.80
2022-11-18T12:21:25.837Z,1.50
2022-11-18T12:22:25.837Z,1.40
2022-11-18T12:23:25.807Z,1.20
2022-11-18T12:24:25.800Z,1.30
2022-11-18T12:25:25.788Z,1.40
2022-11-18T12:26:25.775Z,1.20
2022-11-18T12:27:25.766Z,1.40
2022-11-18T12:28:25.749Z,1.30
2022-11-18T12:29:25.738Z,1.40
2022-11-18T12:30:25.725Z,1.40
2022-11-18T12:31:25.713Z,1.20
2022-11-18T12:32:25.717Z,1.30
2022-11-18T12:33:25.687Z,1.00
2022-11-18T12:34:25.675Z,1.10
2022-11-18T12:35:25.656Z,2.00
2022-11-18T12:36:25.644Z,1.00
2022-11-18T12:37:25.654Z,1.10
2022-11-18T12:38:25.624Z,0.90
2022-11-18T12:39:25.628Z,1.20
2022-11-18T12:40:25.595Z,1.00
2022-11-18T12:41:25.590Z,1.00
2022-11-18T12:42:25.587Z,1.10
2022-11-18T12:43:25.555Z,0.90
2022-11-18T12:44:25.563Z,1.00
2022-11-18T12:45:25.537Z,0.90
2022-11-18T12:46:25.525Z,0.90
2022-11-18T12:47:25.523Z,1.10
2022-11-18T12:48:27.622Z,1.10
2022-11-18T12:49:25.484Z,1.10
2022-11-18T12:50:25.476Z,1.00
2022-11-18T12:51:25.488Z,1.30
2022-11-18T12:52:25.465Z,1.30
2022-11-18T12:53:25.423Z,1.00
2022-11-18T12:54:25.427Z,1.10
2022-11-18T12:55:25.415Z,1.20
2022-11-18T12:56:25.403Z,1.50
2022-11-18T12:57:25.395Z,1.30
2022-11-18T12:58:25.371Z,1.40
2022-11-18T12:59:25.362Z,1.30
2022-11-18T13:00:25.667Z,1.30
2022-11-18T13:01:25.404Z,1.20
2022-11-18T13:02:25.339Z,1.20
2022-11-18T13:03:25.302Z,1.50
2022-11-18T13:04:25.305Z,1.20
2022-11-18T13:05:25.281Z,1.50
2022-11-18T13:06:25.284Z,1.20
2022-11-18T13:07:25.324Z,1.20
2022-11-18T13:08:25.249Z,0.90
2022-11-18T13:09:25.234Z,1.10
2022-11-18T13:10:25.232Z,1.30
2022-11-18T13:11:25.245Z,1.20
2022-11-18T13:12:25.209Z,1.50
2022-11-18T13:13:25.186Z,1.40
2022-11-18T13:14:25.190Z,1.40
2022-11-18T13:15:25.155Z,1.90
2022-11-18T13:16:25.144Z,3.00
2022-11-18T13:17:25.141Z,2.70
2022-11-18T13:18:25.136Z,2.20
2022-11-18T13:19:25.109Z,1.70
2022-11-18T13:20:25.087Z,1.20
2022-11-18T13:21:25.091Z,1.20
2022-11-18T13:22:25.118Z,1.30